createdAt,value
2023-08-15T00:00:41.247Z,79.812500
2023-08-15T00:05:41.349Z,79.904762
2023-08-15T00:10:29.202Z,79.909091
2023-08-15T00:15:29.275Z,80.000000
2023-08-15T00:20:29.650Z,80.470588
2023-08-15T00:25:29.341Z,80.454545
2023-08-15T00:30:29.264Z,81.000000
2023-08-15T00:35:29.236Z,81.000000
2023-08-15T00:40:29.270Z,79.761905
2023-08-15T00:45:29.224Z,78.909091
2023-08-15T00:50:41.202Z,79.117647
2023-08-15T00:55:29.263Z,79.909091
2023-08-15T01:00:41.267Z,79.318182
2023-08-15T01:05:29.245Z,78.400000
2023-08-15T01:10:29.684Z,79.000000
2023-08-15T01:15:29.258Z,79.888889
2023-08-15T01:20:29.258Z,79.631579
2023-08-15T01:25:29.209Z,79.350000
2023-08-15T01:30:29.343Z,79.142857
2023-08-15T01:35:29.270Z,79.157895
2023-08-15T01:40:29.312Z,79.850000
2023-08-15T01:45:29.344Z,80.000000
2023-08-15T01:50:29.263Z,79.304348
2023-08-15T01:55:29.209Z,78.565217
2023-08-15T02:00:30.207Z,78.571429
2023-08-15T02:05:29.368Z,79.315789
2023-08-15T02:10:53.327Z,80.210526
2023-08-15T02:15:41.265Z,81.388889
2023-08-15T02:20:29.316Z,82.333333
2023-08-15T02:25:29.238Z,82.750000
2023-08-15T02:30:41.206Z,83.095238
2023-08-15T02:35:41.280Z,83.388889
2023-08-15T02:40:41.262Z,82.350000
2023-08-15T02:45:29.358Z,82.190476
2023-08-15T02:50:29.197Z,82.760000
2023-08-15T02:55:42.224Z,82.833333
2023-08-15T03:00:29.208Z,83.315789
2023-08-15T03:05:29.214Z,82.315789
2023-08-15T03:10:29.343Z,81.052632
2023-08-15T03:15:29.333Z,80.523810
2023-08-15T03:20:29.148Z,80.200000
2023-08-15T03:25:41.224Z,80.217391
2023-08-15T03:30:29.186Z,80.736842
2023-08-15T03:35:29.185Z,81.000000
2023-08-15T03:40:29.240Z,81.222222
2023-08-15T03:45:29.355Z,81.000000
2023-08-15T03:50:29.197Z,81.217391
2023-08-15T03:55:29.224Z,80.400000
2023-08-15T04:00:29.226Z,80.736842
2023-08-15T04:05:29.279Z,80.315789
2023-08-15T04:10:29.536Z,81.000000
2023-08-15T04:15:29.114Z,80.478261
2023-08-15T04:20:29.137Z,80.368421
2023-08-15T04:25:41.251Z,81.238095
2023-08-15T04:30:29.183Z,81.777778
2023-08-15T04:35:29.284Z,79.944444
2023-08-15T04:40:29.172Z,78.421053
2023-08-15T04:45:29.126Z,78.217391
2023-08-15T04:50:29.174Z,78.000000
2023-08-15T04:55:41.195Z,76.681818
2023-08-15T05:00:30.917Z,76.952381
2023-08-15T05:05:41.273Z,76.416667
2023-08-15T05:10:29.145Z,75.700000
2023-08-15T05:15:29.116Z,75.736842
2023-08-15T05:20:29.270Z,74.571429
2023-08-15T05:25:29.335Z,74.760000
2023-08-15T05:30:29.237Z,74.105263
2023-08-15T05:35:29.225Z,73.950000
2023-08-15T05:40:29.154Z,73.571429
2023-08-15T05:45:29.142Z,72.200000
2023-08-15T05:50:29.202Z,70.722222
2023-08-15T05:55:29.222Z,69.318182
2023-08-15T06:00:30.225Z,68.636364
2023-08-15T06:05:29.168Z,68.095238
2023-08-15T06:10:29.180Z,67.863636
2023-08-15T06:15:53.200Z,66.900000
2023-08-15T06:20:29.187Z,66.538462
2023-08-15T06:25:29.262Z,64.500000
2023-08-15T06:30:53.193Z,64.315789
2023-08-15T06:35:29.123Z,63.500000
2023-08-15T06:40:29.119Z,64.545455
2023-08-15T06:45:29.199Z,63.571429
2023-08-15T06:50:29.561Z,64.500000
2023-08-15T06:55:53.191Z,64.285714
2023-08-15T07:00:29.358Z,64.055556
2023-08-15T07:05:29.174Z,63.250000
2023-08-15T07:10:29.198Z,63.166667
2023-08-15T07:15:29.180Z,63.809524
2023-08-15T07:20:31.382Z,63.869565
2023-08-15T07:25:41.241Z,64.136364
2023-08-15T07:30:29.116Z,62.909091
2023-08-15T07:35:29.159Z,62.578947
2023-08-15T07:40:53.196Z,63.647059
2023-08-15T07:45:29.258Z,62.333333
2023-08-15T07:50:29.132Z,63.304348
2023-08-15T07:55:30.507Z,63.636364
2023-08-15T08:00:41.100Z,63.590909
2023-08-15T08:05:30.938Z,63.409091
2023-08-15T08:10:29.119Z,64.400000
2023-08-15T08:15:29.228Z,65.263158
2023-08-15T08:20:29.332Z,62.434783
2023-08-15T08:25:29.202Z,62.736842
2023-08-15T08:30:30.782Z,63.363636
2023-08-15T08:35:29.165Z,64.000000
2023-08-15T08:40:29.145Z,64.809524
2023-08-15T08:45:53.094Z,65.142857
2023-08-15T08:50:29.194Z,65.187500
2023-08-15T08:55:29.768Z,65.476190
2023-08-15T09:00:29.108Z,65.050000
2023-08-15T09:05:54.133Z,63.944444
2023-08-15T09:10:29.165Z,64.000000
2023-08-15T09:15:41.247Z,63.800000
2023-08-15T09:20:29.361Z,64.238095
2023-08-15T09:25:29.229Z,63.000000
2023-08-15T09:30:29.081Z,61.777778
2023-08-15T09:35:29.228Z,61.210526
2023-08-15T09:40:29.279Z,60.315789
2023-08-15T09:45:29.212Z,60.947368
2023-08-15T09:50:29.231Z,60.047619
2023-08-15T09:55:29.089Z,60.454545
2023-08-15T10:00:29.195Z,59.047619
2023-08-15T10:05:29.095Z,57.904762
2023-08-15T10:10:29.187Z,58.952381
2023-08-15T10:15:29.110Z,59.600000
2023-08-15T10:20:29.198Z,58.400000
2023-08-15T10:25:29.258Z,57.428571
2023-08-15T10:30:41.189Z,58.550000
2023-08-15T10:35:32.893Z,57.450000
2023-08-15T10:40:29.097Z,58.409091
2023-08-15T10:45:29.179Z,58.100000
2023-08-15T10:50:41.163Z,58.400000
2023-08-15T10:55:29.117Z,58.545455
2023-08-15T11:00:29.190Z,58.952381
2023-08-15T11:05:41.178Z,59.095238
2023-08-15T11:10:53.160Z,59.692308
2023-08-15T11:16:17.234Z,58.555556
2023-08-15T11:23:42.124Z,58.250000
2023-08-15T11:27:05.125Z,58.500000
2023-08-15T11:32:05.149Z,59.000000
2023-08-15T11:35:53.048Z,60.000000
2023-08-15T11:40:29.170Z,60.000000
2023-08-15T11:45:29.271Z,59.076923
2023-08-15T11:51:17.013Z,59.500000
2023-08-15T11:55:41.159Z,60.000000
2023-08-15T12:02:05.031Z,59.900000
2023-08-15T12:05:29.104Z,59.000000
2023-08-15T12:11:01.701Z,58.529412
2023-08-15T12:15:41.133Z,58.400000
2023-08-15T12:20:29.093Z,60.000000
2023-08-15T12:25:56.130Z,59.875000
2023-08-15T12:30:41.140Z,60.076923
2023-08-15T12:35:53.092Z,60.933333
2023-08-15T12:40:41.166Z,61.133333
2023-08-15T12:46:05.308Z,61.428571
2023-08-15T12:50:32.223Z,61.466667
2023-08-15T12:55:29.052Z,61.733333
2023-08-15T13:00:41.089Z,61.894737
2023-08-15T13:05:53.061Z,61.928571
2023-08-15T13:10:29.131Z,62.235294
2023-08-15T13:15:29.064Z,62.800000
2023-08-15T13:20:29.542Z,62.521739
2023-08-15T13:25:53.166Z,62.923077
2023-08-15T13:30:29.071Z,62.526316
2023-08-15T13:35:41.120Z,61.875000
2023-08-15T13:40:41.045Z,62.000000
2023-08-15T13:45:41.070Z,61.176471
2023-08-15T13:51:17.082Z,61.375000
2023-08-15T13:57:29.531Z,60.928571
2023-08-15T14:00:41.172Z,61.500000
2023-08-15T14:07:53.183Z,61.857143
2023-08-15T14:11:05.049Z,62.000000
2023-08-15T14:15:29.044Z,62.000000
2023-08-15T14:20:29.200Z,62.625000
2023-08-15T14:25:29.074Z,63.238095
2023-08-15T14:30:29.224Z,64.333333
2023-08-15T14:35:53.059Z,64.850000
2023-08-15T14:40:29.220Z,65.437500
2023-08-15T14:46:17.126Z,66.266667
2023-08-15T14:50:29.045Z,66.000000
2023-08-15T14:55:53.025Z,65.666667
2023-08-15T15:00:30.697Z,66.000000
2023-08-15T15:05:29.186Z,65.375000
2023-08-15T15:10:28.985Z,65.476190
2023-08-15T15:15:53.800Z,65.708333
2023-08-15T15:20:29.085Z,65.764706
2023-08-15T15:25:29.158Z,65.550000
2023-08-15T15:30:29.152Z,65.571429
2023-08-15T15:35:41.038Z,64.947368
2023-08-15T15:40:29.076Z,65.444444
2023-08-15T15:46:05.160Z,65.529412
2023-08-15T15:50:28.992Z,65.923077
2023-08-15T15:55:41.135Z,65.150000
2023-08-15T16:00:29.215Z,66.095238
2023-08-15T16:05:28.978Z,66.826087
2023-08-15T16:10:29.396Z,66.684211
2023-08-15T16:15:29.106Z,66.434783
2023-08-15T16:20:42.272Z,66.869565
2023-08-15T16:25:52.958Z,67.000000
2023-08-15T16:30:29.139Z,67.200000
2023-08-15T16:35:41.101Z,66.500000
2023-08-15T16:43:41.063Z,67.285714
2023-08-15T16:46:53.150Z,67.000000
2023-08-15T16:52:40.989Z,67.000000
2023-08-15T17:01:41.116Z,68.500000
2023-08-15T17:05:41.126Z,69.090909
2023-08-15T17:10:29.009Z,69.833333
2023-08-15T17:16:17.129Z,70.000000
2023-08-15T17:26:41.083Z,70.666667
2023-08-15T17:30:29.162Z,72.000000
2023-08-15T17:38:53.071Z,71.800000
2023-08-15T17:42:29.057Z,73.000000
2023-08-15T17:48:05.163Z,73.000000
2023-08-15T17:52:16.953Z,72.000000
2023-08-15T17:57:41.081Z,72.750000
2023-08-15T18:00:52.998Z,73.000000
2023-08-15T18:15:53.911Z,74.000000
2023-08-15T18:20:53.040Z,75.000000
2023-08-15T18:34:41.203Z,75.000000
2023-08-15T18:50:41.136Z,76.000000
2023-08-15T19:17:42.258Z,78.000000
2023-08-15T19:20:41.034Z,79.000000
2023-08-15T19:25:28.976Z,79.000000
2023-08-15T19:31:53.056Z,79.555556
2023-08-15T19:35:52.943Z,80.000000
2023-08-15T19:40:29.097Z,80.000000
2023-08-15T19:45:29.234Z,80.000000
2023-08-15T19:51:28.994Z,81.000000
2023-08-15T19:55:28.977Z,81.166667
2023-08-15T20:02:05.004Z,81.583333
2023-08-15T20:05:29.038Z,82.000000
2023-08-15T20:10:29.082Z,82.000000
2023-08-15T20:15:28.969Z,82.090909
2023-08-15T20:20:28.978Z,82.478261
2023-08-15T20:25:28.911Z,82.444444
2023-08-15T20:30:41.124Z,82.904762
2023-08-15T20:35:29.003Z,83.000000
2023-08-15T20:40:29.261Z,83.350000
2023-08-15T20:45:40.952Z,83.833333
2023-08-15T20:50:28.996Z,84.000000
2023-08-15T20:55:28.918Z,84.000000
2023-08-15T21:00:28.940Z,83.722222
2023-08-15T21:05:29.104Z,83.772727
2023-08-15T21:10:41.020Z,84.095238
2023-08-15T21:15:28.839Z,84.047619
2023-08-15T21:20:29.859Z,83.700000
2023-08-15T21:25:40.999Z,83.454545
2023-08-15T21:30:29.035Z,83.954545
2023-08-15T21:35:29.056Z,84.000000
2023-08-15T21:40:28.894Z,84.000000
2023-08-15T21:45:40.938Z,84.000000
2023-08-15T21:50:41.295Z,84.842105
2023-08-15T21:55:28.869Z,85.000000
2023-08-15T22:00:28.979Z,85.904762
2023-08-15T22:05:29.077Z,86.047619
2023-08-15T22:10:28.862Z,86.000000
2023-08-15T22:15:28.962Z,86.157895
2023-08-15T22:20:28.949Z,87.000000
2023-08-15T22:25:29.209Z,87.000000
2023-08-15T22:30:29.072Z,87.000000
2023-08-15T22:35:28.910Z,87.375000
2023-08-15T22:40:52.926Z,87.285714
2023-08-15T22:45:29.068Z,87.200000
2023-08-15T22:50:28.974Z,87.434783
2023-08-15T22:55:29.043Z,88.000000
2023-08-15T23:00:29.054Z,88.000000
2023-08-15T23:05:28.846Z,87.954545
2023-08-15T23:10:28.957Z,88.000000
2023-08-15T23:15:41.049Z,88.000000
2023-08-15T23:20:28.943Z,88.000000
2023-08-15T23:25:29.112Z,88.047619
2023-08-15T23:30:28.962Z,88.000000
2023-08-15T23:35:28.882Z,87.840000
2023-08-15T23:40:28.941Z,87.761905
2023-08-15T23:45:29.029Z,88.000000
2023-08-15T23:50:29.213Z,88.421053
2023-08-15T23:55:40.832Z,88.000000
